MyFlightRoute - Storm Chaser


To sort multiple columns, hold SHIFT key while clicking column header

ICAOVisibilityWindSpeedGustCeilingWeatherTempDew PointSpreadFlight CategoryMETAR
KABQ10.0010 2500016.70-6.1022.8VFRKABQ 082052Z 18010KT 10SM FEW100 BKN250 17/M06 A3016 RMK AO2 SLP171 T01671061 58028
KAMA10.002531 21.702.8018.9VFRKAMA 082053Z 19025G31KT 10SM CLR 22/03 A3013 RMK AO2 PK WND 18033/2032 SLP173 T02170028 58019
KAPA10.001725 2000018.90-11.1030VFRKAPA 082053Z 23017G25KT 10SM FEW120 BKN200 19/M11 A2992 RMK AO2 PK WND 20027/2033 WSHFT 2023 SLP091 T01891111 56037
KASE10.007 50006.70-2.208.9VFRKASE 082053Z 16007KT 10SM BKN050 BKN070 07/M02 A3013 RMK AO2 SLP159 T00671022 58006
KBFI10.006 9.400.608.8VFRKBFI 082053Z 30006KT 10SM CLR 09/01 A2995 RMK AO2 SLP141 T00940006 56016
KBFL10.001116 18.90-1.7020.6VFRKBFL 082054Z 31011G16KT 270V340 10SM CLR 19/M02 A3016 RMK AO2 SLP209 T01891017 58006
KBIL10.006 200009.40-2.8012.2VFRKBIL 082053Z 07006KT 10SM FEW085 SCT120 BKN200 09/M03 A2984 RMK AO2 SLP117 T00941028 58032
KBOI10.003 10.60-3.3013.9VFRKBOI 082053Z 25003KT 10SM FEW120 11/M03 A2988 RMK AO2 SLP124 T01061033 58006
KBUR10.0010 600017.204.4012.8VFRKBUR 082053Z 21010KT 170V240 10SM FEW040 BKN060 17/04 A3014 RMK AO2 SLP197 T01720044 58014 $
KBZN10.000 100005.00-2.807.8VFRKBZN 082056Z 00000KT 10SM BKN100 BKN120 05/M03 A2984 RMK AO2 SLP123 T00501028 57027
KCMA10.0011 18.305.0013.3VFRKCMA 082055Z 27011KT 10SM CLR 18/05 A3016 RMK AO2 SLP222 T01830050 58010
KCNO10.009 460017.206.1011.1VFRKCNO 082053Z 24009KT 10SM BKN046 BKN055 17/06 A3016 RMK AO2 SLP210 T01720061 58016
KCOS10.001132 1100017.20-8.3025.5VFRKCOS 082054Z 21011G32KT 10SM BKN110 BKN150 BKN230 17/M08 A3000 RMK AO2 PK WND 21032/2046 SLP125 ACSL SW-NW T01721083 56026
KCPR10.002231 18.30-7.8026.1VFRKCPR 082053Z 20022G31KT 10SM FEW100 18/M08 A2985 RMK AO2 PK WND 21035/2040 RAB07E11B34E44 SLP081 P0000 60000 T01831078 56025
KCRQ10.0011 16.108.307.8VFRKCRQ 082053Z 26011KT 10SM CLR 16/08 A3016 RMK AO2 SLP212 T01610083 58009
KDEN10.004 2200018.90-8.3027.2VFRKDEN 082053Z 35004KT 10SM FEW110 SCT150 BKN220 19/M08 A2992 RMK AO2 SLP083 T01891083 56033
KEGE10.001420 800010.600.6010VFRKEGE 082056Z 25014G20KT 10SM BKN080 BKN120 11/01 A3013 RMK AO2 SLP206 6//// T01060006 58010 PNO $
KELP10.001115 2500026.10-2.2028.3VFRKELP 082051Z 21011G15KT 170V230 10SM FEW190 BKN250 26/M02 A3012 RMK AO2 SLP149 T02611022 58034
KEMT10.004 550018.006.0012VFRKEMT 082045Z 23004KT 10SM SCT044 BKN055 18/06 A3016
KEUG10.006 2500011.702.209.5VFRKEUG 082054Z 20006KT 10SM FEW015 SCT050 BKN250 12/02 A2994 RMK AO2 SLP140 T01170022 58010
KFAT10.006 2500016.701.7015VFRKFAT 082053Z 27006KT 10SM FEW060 BKN250 17/02 A3019 RMK AO2 SLP222 CLDS TPG MTNS DSNT N-E-S T01670017 58002
KFLG10.002232 14.40-8.3022.7VFRKFLG 082057Z 23022G32KT 10SM CLR 14/M08 A3014 RMK AO2 PK WND 22033/2047 SLP153 T01441083 58014
KFMN10.006 19.40-6.7026.1VFRKFMN 082053Z 29006KT 10SM FEW100 19/M07 A3008 RMK AO2 SLP153 T01941067 58034
KFUL10.007 18.306.7011.6VFRKFUL 082053Z 22007KT 170V240 10SM FEW043 SCT060 18/07 A3015 RMK AO2 SLP208 T01830067 58012
KGCN10.002334 16.70-9.4026.1VFRKGCN 082054Z 22023G34KT 10SM CLR 17/M09 A3010 RMK AO2 PK WND 21038/2002 SLP137 T01671094 58018
KGEG10.0011 230006.10-5.6011.7VFRKGEG 082053Z 03011KT 10SM SCT150 BKN230 06/M06 A2995 RMK AO2 SLP155 T00611056 57026
KGJT10.00516 900017.80-5.0022.8VFRKGJT 082053Z 22005G16KT 10SM BKN090 18/M05 A3001 RMK AO2 SLP120 T01781050 58033
KGPI10.003 110006.10-6.7012.8VFRKGPI 082055Z VRB03KT 10SM OVC110 06/M07 A2993 RMK AO2 SLPNO T00611067 58031
KHHR10.0013 17.808.309.5VFRKHHR 082053Z 27013KT 10SM CLR 18/08 A3017 RMK AO2 SLP215 60000 T01780083 58009
KHLN10.007 29001.70-1.703.4MVFRKHLN 082053Z 28007KT 10SM SCT021 OVC029 02/M02 A2989 RMK AO2 SNE13B17E34 SLP161 P0000 60004 T00171017 58016
KHND10.001624 21.70-3.9025.6VFRKHND 082056Z 21016G24KT 10SM CLR 22/M04 A2995 RMK AO2 PK WND 21026/2012 SLP144 T02171039 58016
KIFP20.0015 26.00-3.0029VFRKIFP 082048Z 18015KT 20SM SKC 26/M03 A2994
KINS10.0020 23.30-21.1044.4VFRKINS 082058Z AUTO 23020KT 10SM CLR 23/M21 A2987 RMK AO2 PK WND 22042/46 SLP084 T02331211 58020 $
KJAC10.005 3.30-5.008.3VFRKJAC 082056Z 12005KT 10SM CLR 03/M05 A2986 RMK AO2 SLP148 T00331050 57024
KLAS10.001220 22.80-7.2030VFRKLAS 082056Z 20012G20KT 10SM CLR 23/M07 A2993 RMK AO2 SLP119 T02281072 58009
KLAX10.0014 16.108.907.2VFRKLAX 082053Z 27014KT 10SM FEW017 FEW035 SCT060 16/09 A3017 RMK AO2 SLP217 TCU DSNT NE-SE T01610089 58007
KLGB10.008 17.807.8010VFRKLGB 082053Z 18008KT 10SM FEW041 18/08 A3016 RMK AO2 SLP213 T01780078 58010
KLSV10.002633 23.60-4.6028.2VFRKLSV 082058Z AUTO 21026G33KT 10SM CLR 24/M05 A2989 RMK AO2 PK WND 22033/48 SLP107 T02361046 58023 $
KMFR10.001724 750011.70-2.8014.5VFRKMFR 082053Z 21017G24KT 10SM BKN075 12/M03 A2997 RMK AO2 SLP152 T01171028 52000
KMHV10.001725 16.00-4.0020VFRKMHV 082040Z AUTO 27017G25KT 10SM CLR 16/M04 A3009 RMK A01
KMRY10.001417 15.601.1014.5VFRKMRY 082054Z 28014G17KT 10SM CLR 16/01 A3023 RMK AO2 SLP250 T01560011 58004
KMSO10.009 50002.80-3.906.7VFRKMSO 082053Z 34009KT 10SM BKN050 OVC060 03/M04 A2992 RMK AO2 SLP154 T00281039 56023
KMYF10.0011 16.108.907.2VFRKMYF 082053Z 24011KT 10SM FEW025 SCT033 16/09 A3018 RMK AO2 SLP216 T01610089 58009
KNYL7.006 23.900.6023.3VFRKNYL 082057Z 27006KT 7SM FEW120 24/01 A3002 RMK AO2 SLP162 T02390006 $
KOAK10.008 500015.601.7013.9VFRKOAK 082053Z 22008KT 10SM BKN050 16/02 A3021 RMK AO2 SLP230 T01560017 58004
KOLM10.000 100007.802.205.6VFRKOLM 082054Z 00000KT 10SM BKN100 08/02 A2996 RMK AO2 SLP145 T00780022 56009
KONT10.009 550016.106.1010VFRKONT 082053Z 22009KT 10SM SCT046 BKN055 16/06 A3014 RMK AO2 SLP204 T01610061 58015
KOTH10.001119 31009.406.103.3VFRKOTH 082056Z 19011G19KT 10SM SCT026 BKN031 09/06 A3000 RMK AO2 WSHFT 2006 RAB08E43 SLP158 P0002 60002 T00940061 53010
KOXR10.001924 16.107.208.9VFRKOXR 082051Z 27019G24KT 10SM CLR 16/07 A3017 RMK AO2 SLP216 T01610072 58009
KPAE10.005 10.60-4.4015VFRKPAE 082053Z 11005KT 10SM CLR 11/M04 A2994 RMK AO2 SLP143 T01061044 56016
KPDX10.0016 950011.700.6011.1VFRKPDX 082053Z 11016KT 10SM FEW060 SCT075 OVC095 12/01 A2995 RMK AO2 SLPNO T01170006
KPHX10.008 29.40-5.6035VFRKPHX 082051Z 20008KT 160V220 10SM FEW250 29/M06 A2998 RMK AO2 SLP137 T02941056 58017
KPOC10.005 500015.006.009VFRKPOC 082047Z 25005KT 10SM SCT042 BKN050 15/06 A3016
KPRC10.001020 18.30-7.2025.5VFRKPRC 082053Z 18010G20KT 10SM CLR 18/M07 A3011 RMK AO2 SLP137 T01831072 58013
KPSC10.0011 13.30-1.7015VFRKPSC 082053Z 02011KT 10SM CLR 13/M02 A2997 RMK AO2 SLP150 T01331017 58027
KPSP10.001219 24.403.9020.5VFRKPSP 082053Z 33012G19KT 10SM CLR 24/04 A3002 RMK AO2 SLP165 T02440039 58012
KRAL10.004 550017.204.4012.8VFRKRAL 082053Z 28004KT 10SM SCT047 OVC055 17/04 A3014 RMK AO2 SLP196 T01720044 58017
KRDD10.0018 800010.601.708.9VFRKRDD 082053Z 16018KT 10SM SCT041 BKN080 BKN090 11/02 A3011 RMK AO2 SLP195 T01060017 50007
KRIV10.005 500016.904.9012VFRKRIV 082058Z AUTO 25005KT 10SM BKN050 17/05 A3013 RMK AO2 SLP199 T01690049 57016
KRNM10.006 390016.106.1010VFRKRNM 082053Z 26006KT 10SM BKN039 16/06 A3016 RMK AO2 SLP206 T01610061 58014
KRNO10.001939 9.40-9.4018.8VFRKRNO 082055Z 22019G39KT 10SM SCT060 09/M09 A2999 RMK AO2 PK WND 22039/2047 SLP143 MTN WAVE ACT AT AP MTNS OBSCD SW THRU NW T00941094 53007
KSAC10.008 13.300.0013.3VFRKSAC 082053Z 19008KT 10SM FEW055 13/00 A3019 RMK AO2 SLP223 T01330000 58004
KSAN10.009 250016.7010.606.1MVFRKSAN 082051Z 29009KT 10SM SCT019 BKN025 17/11 A3020 RMK AO2 SLP228 T01670106 58005
KSBA10.0014 20.601.1019.5VFRKSBA 082053Z 27014KT 10SM CLR 21/01 A3014 RMK AO2 SLP205 T02060011 58015
KSBD7.003 500018.003.0015VFRKSBD 082053Z 26003KT 7SM SCT047 BKN050 18/03 A3015
KSBP10.0011 14.402.8011.6VFRKSBP 082056Z 31011KT 10SM CLR 14/03 A3022 RMK AO2 SLP234 T01440028 58009 $
KSDM10.00815 270015.608.906.7MVFRKSDM 082053Z 28008G15KT 10SM SCT021 BKN027 16/09 A3017 RMK AO2 SLP216 T01560089 58010
KSEA10.006 2500010.001.708.3VFRKSEA 082053Z 28006KT 10SM FEW120 BKN250 10/02 A2994 RMK AO2 SLP147 T01000017 56012
KSEE10.008 410018.009.009VFRKSEE 082047Z 21008KT 10SM BKN041 18/09 A3017
KSFO10.0015 14.402.8011.6VFRKSFO 082056Z 20015KT 10SM SCT046 14/03 A3020 RMK AO2 SLP226 T01440028 58003
KSJC10.006 15.000.0015VFRKSJC 082053Z 02006KT 10SM FEW050 SCT060 15/00 A3020 RMK AO2 SLP226 T01500000 58010
KSLC10.001925 1800020.60-8.9029.5VFRKSLC 082054Z 17019G25KT 10SM FEW008 FEW100 SCT150 BKN180 BKN250 21/M09 A2981 RMK AO2 PK WND 21032/2025 SLP064 FU FEW008 FU VC NW ACSL N-SE AND DSNT SE AND NW T02061089 56019 $
KSMF10.009 2500013.900.6013.3VFRKSMF 082053Z 19009KT 10SM SCT100 BKN250 14/01 A3018 RMK AO2 SLP219 T01390006 58003
KSMO10.0010 16.108.307.8VFRKSMO 082051Z 23010KT 10SM CLR 16/08 A3017 RMK AO2 SLP215 T01610083 58007
KSMX10.0012 14.403.9010.5VFRKSMX 082051Z 33012KT 10SM CLR 14/04 A3023 RMK AO2 SLP238 T01440039 58009
KSNA10.007 450017.807.8010VFRKSNA 082053Z 23007KT 10SM SCT031 BKN045 18/08 A3017 RMK AO2 SLP215 T01780078 58008
KSUN10.0010 110004.00-3.007VFRKSUN 082048Z 13010KT 10SM SCT075 SCT090 OVC110 04/M03 A2987
KTOA10.0012 18.009.009VFRKTOA 082047Z 25012KT 10SM SCT027 18/09 A3016
KTPH10.001422 14.40-8.3022.7VFRKTPH 082056Z AUTO 19014G22KT 10SM CLR 14/M08 A2992 RMK AO2 SLP105 T01441083 58016
KTUS10.008 26.70-8.3035VFRKTUS 082053Z 28008KT 10SM CLR 27/M08 A3009 RMK AO2 SLP153 T02671083 58017
KVCV10.0013 0.000.000VFRKVCV 082045Z 27013KT 10SM SKC A3011
KVGT10.001725 23.30-3.9027.2VFRKVGT 082053Z 16017G25KT 10SM CLR 23/M04 A2987 RMK AO2 PK WND 20029/2006 SLP117 T02331039 58017
KVNY10.006 18.306.1012.2VFRKVNY 082051Z VRB06KT 10SM FEW041 18/06 A3013 RMK AO2 SLP199 T01830061 58015
KWHP10.004 17.005.0012VFRKWHP 082055Z 16004KT 10SM SCT050 17/05 A3017
KWJF10.001323 16.101.1015VFRKWJF 082056Z 25013G23KT 10SM CLR 16/01 A3011 RMK AO2 PK WND 27032/2013 SLP195 T01610011 58007
KYKM10.004 9.40-6.7016.1VFRKYKM 082053Z 10004KT 10SM CLR 09/M07 A2998 RMK AO2 SLP160 T00941067 56021